sensor_id;sensor_type;location;lat;lon;timestamp;pressure;altitude;pressure_sealevel;temperature;humidity
28428;BME280;15662;49.128;8.520;2024-01-10T00:01:19;101482.81;;;3.71;34.75
28428;BME280;15662;49.128;8.520;2024-01-10T00:03:47;101476.69;;;3.70;34.66
28428;BME280;15662;49.128;8.520;2024-01-10T00:06:15;101478.47;;;3.73;35.19
28428;BME280;15662;49.128;8.520;2024-01-10T00:08:42;101460.91;;;3.69;35.30
28428;BME280;15662;49.128;8.520;2024-01-10T00:11:09;101469.78;;;3.75;34.87
28428;BME280;15662;49.128;8.520;2024-01-10T00:13:36;101464.66;;;3.81;34.86
28428;BME280;15662;49.128;8.520;2024-01-10T00:16:04;101462.09;;;3.84;34.72
28428;BME280;15662;49.128;8.520;2024-01-10T00:18:31;101458.66;;;3.88;35.44
28428;BME280;15662;49.128;8.520;2024-01-10T00:20:59;101469.25;;;3.93;34.82
28428;BME280;15662;49.128;8.520;2024-01-10T00:23:26;101453.47;;;3.90;35.44
28428;BME280;15662;49.128;8.520;2024-01-10T00:25:53;101457.00;;;3.94;34.94
28428;BME280;15662;49.128;8.520;2024-01-10T00:28:20;101462.31;;;3.97;34.84
28428;BME280;15662;49.128;8.520;2024-01-10T00:30:48;101463.22;;;3.99;34.82
28428;BME280;15662;49.128;8.520;2024-01-10T00:33:15;101454.53;;;4.00;35.47
28428;BME280;15662;49.128;8.520;2024-01-10T00:35:43;101451.03;;;3.99;35.34
28428;BME280;15662;49.128;8.520;2024-01-10T00:38:10;101455.41;;;4.00;35.48
28428;BME280;15662;49.128;8.520;2024-01-10T00:40:37;101458.84;;;3.98;35.52
28428;BME280;15662;49.128;8.520;2024-01-10T00:43:04;101457.97;;;3.99;35.59
28428;BME280;15662;49.128;8.520;2024-01-10T00:45:32;101459.78;;;4.01;35.12
28428;BME280;15662;49.128;8.520;2024-01-10T00:47:59;101459.78;;;4.01;35.20
28428;BME280;15662;49.128;8.520;2024-01-10T00:50:26;101444.84;;;3.97;35.62
28428;BME280;15662;49.128;8.520;2024-01-10T00:52:53;101465.13;;;4.06;35.36
28428;BME280;15662;49.128;8.520;2024-01-10T00:55:21;101468.69;;;4.09;35.67
28428;BME280;15662;49.128;8.520;2024-01-10T00:57:48;101465.22;;;4.12;35.44
28428;BME280;15662;49.128;8.520;2024-01-10T01:00:15;101463.56;;;4.16;34.90
28428;BME280;15662;49.128;8.520;2024-01-10T01:02:42;101459.13;;;4.13;35.57
28428;BME280;15662;49.128;8.520;2024-01-10T01:05:11;101445.91;;;4.08;34.90
28428;BME280;15662;49.128;8.520;2024-01-10T01:07:38;101458.31;;;4.16;35.26
28428;BME280;15662;49.128;8.520;2024-01-10T01:10:08;101457.38;;;4.13;35.47
28428;BME280;15662;49.128;8.520;2024-01-10T01:12:36;101451.22;;;4.10;35.32
28428;BME280;15662;49.128;8.520;2024-01-10T01:15:04;101461.81;;;4.16;35.26
28428;BME280;15662;49.128;8.520;2024-01-10T01:17:31;101433.53;;;4.00;35.35
28428;BME280;15662;49.128;8.520;2024-01-10T01:19:58;101457.34;;;4.12;35.14
28428;BME280;15662;49.128;8.520;2024-01-10T01:22:26;101455.59;;;4.11;35.21
28428;BME280;15662;49.128;8.520;2024-01-10T01:24:53;101458.19;;;4.09;34.98
28428;BME280;15662;49.128;8.520;2024-01-10T01:27:20;101453.75;;;4.07;35.53
28428;BME280;15662;49.128;8.520;2024-01-10T01:29:47;101467.84;;;4.12;35.30
28428;BME280;15662;49.128;8.520;2024-01-10T01:32:15;101467.84;;;4.10;35.08
28428;BME280;15662;49.128;8.520;2024-01-10T01:34:42;101459.88;;;4.06;34.94
28428;BME280;15662;49.128;8.520;2024-01-10T01:37:09;101464.31;;;4.10;34.93
28428;BME280;15662;49.128;8.520;2024-01-10T01:39:36;101466.06;;;4.09;35.60
28428;BME280;15662;49.128;8.520;2024-01-10T01:42:04;101466.94;;;4.10;35.09
28428;BME280;15662;49.128;8.520;2024-01-10T01:44:31;101458.22;;;4.11;35.26
28428;BME280;15662;49.128;8.520;2024-01-10T01:46:58;101460.84;;;4.11;35.54
28428;BME280;15662;49.128;8.520;2024-01-10T01:49:26;101457.38;;;4.13;35.18
28428;BME280;15662;49.128;8.520;2024-01-10T01:51:53;101454.84;;;4.18;35.16
28428;BME280;15662;49.128;8.520;2024-01-10T01:54:21;101456.63;;;4.19;35.11
28428;BME280;15662;49.128;8.520;2024-01-10T01:56:49;101457.53;;;4.21;35.43
28428;BME280;15662;49.128;8.520;2024-01-10T01:59:17;101453.16;;;4.22;35.51
28428;BME280;15662;49.128;8.520;2024-01-10T02:01:45;101450.53;;;4.22;35.51
28428;BME280;15662;49.128;8.520;2024-01-10T02:04:13;101446.16;;;4.21;35.45
28428;BME280;15662;49.128;8.520;2024-01-10T02:06:40;101430.25;;;4.13;34.93
28428;BME280;15662;49.128;8.520;2024-01-10T02:09:08;101432.94;;;4.16;35.03
28428;BME280;15662;49.128;8.520;2024-01-10T02:11:35;101446.16;;;4.22;35.10
28428;BME280;15662;49.128;8.520;2024-01-10T02:14:02;101440.91;;;4.21;35.41
28428;BME280;15662;49.128;8.520;2024-01-10T02:16:30;101434.69;;;4.17;35.31
28428;BME280;15662;49.128;8.520;2024-01-10T02:18:57;101440.81;;;4.16;34.94
28428;BME280;15662;49.128;8.520;2024-01-10T02:21:24;101431.13;;;4.13;35.49
28428;BME280;15662;49.128;8.520;2024-01-10T02:23:52;101437.28;;;4.14;34.86
28428;BME280;15662;49.128;8.520;2024-01-10T02:26:19;101435.47;;;4.11;35.46
28428;BME280;15662;49.128;8.520;2024-01-10T02:28:46;101428.50;;;4.12;34.96
28428;BME280;15662;49.128;8.520;2024-01-10T02:31:13;101432.84;;;4.10;35.05
28428;BME280;15662;49.128;8.520;2024-01-10T02:33:40;101418.78;;;4.06;34.83
28428;BME280;15662;49.128;8.520;2024-01-10T02:36:07;101432.84;;;4.11;35.47
28428;BME280;15662;49.128;8.520;2024-01-10T02:38:35;101437.28;;;4.14;34.87
28428;BME280;15662;49.128;8.520;2024-01-10T02:41:02;101423.25;;;4.12;35.60
28428;BME280;15662;49.128;8.520;2024-01-10T02:43:30;101415.34;;;4.10;35.20
28428;BME280;15662;49.128;8.520;2024-01-10T02:45:57;101424.16;;;4.14;35.21
28428;BME280;15662;49.128;8.520;2024-01-10T02:48:25;101419.81;;;4.14;35.50
28428;BME280;15662;49.128;8.520;2024-01-10T02:50:53;101418.91;;;4.14;35.53
28428;BME280;15662;49.128;8.520;2024-01-10T02:53:21;101415.44;;;4.15;35.09
28428;BME280;15662;49.128;8.520;2024-01-10T02:55:49;101411.06;;;4.16;35.00
28428;BME280;15662;49.128;8.520;2024-01-10T02:58:17;101412.75;;;4.13;35.23
28428;BME280;15662;49.128;8.520;2024-01-10T03:00:44;101411.84;;;4.10;35.29
28428;BME280;15662;49.128;8.520;2024-01-10T03:03:11;101411.81;;;4.08;35.29
28428;BME280;15662;49.128;8.520;2024-01-10T03:05:38;101398.59;;;4.02;35.32
28428;BME280;15662;49.128;8.520;2024-01-10T03:08:06;101406.53;;;4.07;35.49
28428;BME280;15662;49.128;8.520;2024-01-10T03:10:34;101408.22;;;4.03;35.29
28428;BME280;15662;49.128;8.520;2024-01-10T03:13:01;101411.75;;;4.05;35.66
28428;BME280;15662;49.128;8.520;2024-01-10T03:15:28;101419.72;;;4.10;35.49
28428;BME280;15662;49.128;8.520;2024-01-10T03:17:55;101399.50;;;4.04;35.36
28428;BME280;15662;49.128;8.520;2024-01-10T03:20:22;101402.16;;;4.06;35.15
28428;BME280;15662;49.128;8.520;2024-01-10T03:22:50;101403.91;;;4.05;35.25
28428;BME280;15662;49.128;8.520;2024-01-10T03:25:17;101400.41;;;4.06;34.93
28428;BME280;15662;49.128;8.520;2024-01-10T03:27:44;101410.09;;;4.09;34.93
28428;BME280;15662;49.128;8.520;2024-01-10T03:30:11;101402.16;;;4.06;35.29
28428;BME280;15662;49.128;8.520;2024-01-10T03:32:39;101408.28;;;4.08;35.29
28428;BME280;15662;49.128;8.520;2024-01-10T03:35:07;101403.03;;;4.06;35.15
28428;BME280;15662;49.128;8.520;2024-01-10T03:37:35;101414.47;;;4.10;34.93
28428;BME280;15662;49.128;8.520;2024-01-10T03:40:02;101408.34;;;4.09;35.27
28428;BME280;15662;49.128;8.520;2024-01-10T03:42:30;101411.84;;;4.10;34.91
28428;BME280;15662;49.128;8.520;2024-01-10T03:44:57;101409.16;;;4.07;34.83
28428;BME280;15662;49.128;8.520;2024-01-10T03:47:24;101407.41;;;4.07;34.71
28428;BME280;15662;49.128;8.520;2024-01-10T03:49:52;101410.03;;;4.06;34.77
28428;BME280;15662;49.128;8.520;2024-01-10T03:52:19;101398.50;;;3.98;35.22
28428;BME280;15662;49.128;8.520;2024-01-10T03:54:46;101410.75;;;3.99;34.65
28428;BME280;15662;49.128;8.520;2024-01-10T03:57:14;101404.59;;;3.95;34.94
28428;BME280;15662;49.128;8.520;2024-01-10T03:59:41;101403.72;;;3.95;34.90
28428;BME280;15662;49.128;8.520;2024-01-10T04:02:08;101395.69;;;3.85;34.87
28428;BME280;15662;49.128;8.520;2024-01-10T04:04:37;101401.91;;;3.92;34.88
28428;BME280;15662;49.128;8.520;2024-01-10T04:07:06;101406.16;;;3.85;34.98
28428;BME280;15662;49.128;8.520;2024-01-10T04:09:33;101407.06;;;3.87;34.68
28428;BME280;15662;49.128;8.520;2024-01-10T04:12:00;101410.56;;;3.86;35.19
28428;BME280;15662;49.128;8.520;2024-01-10T04:14:28;101407.91;;;3.85;34.71
28428;BME280;15662;49.128;8.520;2024-01-10T04:16:55;101414.75;;;3.78;34.93
28428;BME280;15662;49.128;8.520;2024-01-10T04:19:22;101409.50;;;3.77;35.39
28428;BME280;15662;49.128;8.520;2024-01-10T04:21:49;101414.66;;;3.72;34.80
28428;BME280;15662;49.128;8.520;2024-01-10T04:24:16;101409.47;;;3.75;35.08
28428;BME280;15662;49.128;8.520;2024-01-10T04:26:44;101413.78;;;3.73;34.75
28428;BME280;15662;49.128;8.520;2024-01-10T04:29:11;101410.28;;;3.73;34.96
28428;BME280;15662;49.128;8.520;2024-01-10T04:31:39;101419.91;;;3.72;35.12
28428;BME280;15662;49.128;8.520;2024-01-10T04:34:06;101413.84;;;3.75;35.21
28428;BME280;15662;49.128;8.520;2024-01-10T04:36:33;101417.34;;;3.75;34.70
28428;BME280;15662;49.128;8.520;2024-01-10T04:39:01;101419.00;;;3.72;34.91
28428;BME280;15662;49.128;8.520;2024-01-10T04:41:28;101401.44;;;3.66;35.14
28428;BME280;15662;49.128;8.520;2024-01-10T04:43:55;101409.34;;;3.69;35.20
28428;BME280;15662;49.128;8.520;2024-01-10T04:46:22;101417.38;;;3.78;35.30
28428;BME280;15662;49.128;8.520;2024-01-10T04:48:49;101416.56;;;3.81;34.78
28428;BME280;15662;49.128;8.520;2024-01-10T04:51:16;101415.72;;;3.82;34.92
28428;BME280;15662;49.128;8.520;2024-01-10T04:53:43;101415.78;;;3.85;35.31
28428;BME280;15662;49.128;8.520;2024-01-10T04:56:10;101421.91;;;3.87;35.46
28428;BME280;15662;49.128;8.520;2024-01-10T04:58:38;101404.34;;;3.83;35.41
28428;BME280;15662;49.128;8.520;2024-01-10T05:01:05;101405.31;;;3.88;35.24
28428;BME280;15662;49.128;8.520;2024-01-10T05:03:32;101420.28;;;3.94;35.53
28428;BME280;15662;49.128;8.520;2024-01-10T05:06:00;101410.69;;;3.94;35.28
28428;BME280;15662;49.128;8.520;2024-01-10T05:08:27;101422.06;;;3.95;35.14
28428;BME280;15662;49.128;8.520;2024-01-10T05:10:54;101427.28;;;3.93;35.08
28428;BME280;15662;49.128;8.520;2024-01-10T05:13:21;101409.66;;;3.86;35.41
28428;BME280;15662;49.128;8.520;2024-01-10T05:15:48;101419.41;;;3.93;35.38
28428;BME280;15662;49.128;8.520;2024-01-10T05:18:16;101406.28;;;3.92;35.20
28428;BME280;15662;49.128;8.520;2024-01-10T05:20:44;101424.72;;;3.98;35.51
28428;BME280;15662;49.128;8.520;2024-01-10T05:23:11;101421.22;;;3.97;34.99
28428;BME280;15662;49.128;8.520;2024-01-10T05:25:39;101420.44;;;4.03;35.52
28428;BME280;15662;49.128;8.520;2024-01-10T05:28:06;101417.00;;;4.05;35.64
28428;BME280;15662;49.128;8.520;2024-01-10T05:30:33;101417.91;;;4.07;35.60
28428;BME280;15662;49.128;8.520;2024-01-10T05:33:00;101410.97;;;4.11;35.22
28428;BME280;15662;49.128;8.520;2024-01-10T05:35:28;101414.56;;;4.14;35.69
28428;BME280;15662;49.128;8.520;2024-01-10T05:37:55;101414.59;;;4.18;35.31
28428;BME280;15662;49.128;8.520;2024-01-10T05:40:23;101413.66;;;4.14;35.16
28428;BME280;15662;49.128;8.520;2024-01-10T05:42:50;101421.59;;;4.19;35.33
28428;BME280;15662;49.128;8.520;2024-01-10T05:45:17;101410.31;;;4.23;35.10
28428;BME280;15662;49.128;8.520;2024-01-10T05:47:45;101417.34;;;4.25;35.12
28428;BME280;15662;49.128;8.520;2024-01-10T05:50:12;101421.81;;;4.29;35.48
28428;BME280;15662;49.128;8.520;2024-01-10T05:52:40;101414.81;;;4.31;35.22
28428;BME280;15662;49.128;8.520;2024-01-10T05:55:07;101419.19;;;4.31;35.25
28428;BME280;15662;49.128;8.520;2024-01-10T05:57:36;101417.53;;;4.36;35.49
28428;BME280;15662;49.128;8.520;2024-01-10T06:00:05;101412.22;;;4.33;35.33
28428;BME280;15662;49.128;8.520;2024-01-10T06:02:37;101419.22;;;4.32;35.50
28428;BME280;15662;49.128;8.520;2024-01-10T06:05:11;101424.53;;;4.35;35.45
28428;BME280;15662;49.128;8.520;2024-01-10T06:07:39;101426.28;;;4.35;35.27
28428;BME280;15662;49.128;8.520;2024-01-10T06:10:08;101425.41;;;4.36;35.31
28428;BME280;15662;49.128;8.520;2024-01-10T06:12:36;101423.59;;;4.33;35.75
28428;BME280;15662;49.128;8.520;2024-01-10T06:15:05;101416.56;;;4.31;35.44
28428;BME280;15662;49.128;8.520;2024-01-10T06:17:33;101413.06;;;4.29;35.29
28428;BME280;15662;49.128;8.520;2024-01-10T06:20:01;101398.06;;;4.23;35.30
28428;BME280;15662;49.128;8.520;2024-01-10T06:22:30;101419.13;;;4.28;35.29
28428;BME280;15662;49.128;8.520;2024-01-10T06:24:57;101407.72;;;4.24;35.85
28428;BME280;15662;49.128;8.520;2024-01-10T06:27:24;101416.44;;;4.23;35.52
28428;BME280;15662;49.128;8.520;2024-01-10T06:29:51;101413.81;;;4.23;35.43
28428;BME280;15662;49.128;8.520;2024-01-10T06:32:19;101412.00;;;4.19;35.25
28428;BME280;15662;49.128;8.520;2024-01-10T06:34:46;101411.06;;;4.16;35.58
28428;BME280;15662;49.128;8.520;2024-01-10T06:37:13;101416.25;;;4.12;35.15
28428;BME280;15662;49.128;8.520;2024-01-10T06:39:41;101419.75;;;4.13;35.64
28428;BME280;15662;49.128;8.520;2024-01-10T06:42:08;101412.63;;;4.04;35.81
28428;BME280;15662;49.128;8.520;2024-01-10T06:44:38;101422.19;;;4.01;35.59
28428;BME280;15662;49.128;8.520;2024-01-10T06:47:05;101424.69;;;3.95;35.57
28428;BME280;15662;49.128;8.520;2024-01-10T06:49:32;101422.88;;;3.91;35.75
28428;BME280;15662;49.128;8.520;2024-01-10T06:52:00;101429.00;;;3.91;35.71
28428;BME280;15662;49.128;8.520;2024-01-10T06:54:27;101426.38;;;3.91;35.75
28428;BME280;15662;49.128;8.520;2024-01-10T06:56:54;101424.56;;;3.88;35.86
28428;BME280;15662;49.128;8.520;2024-01-10T06:59:21;101425.41;;;3.86;35.50
28428;BME280;15662;49.128;8.520;2024-01-10T07:01:53;101418.41;;;3.85;35.63
28428;BME280;15662;49.128;8.520;2024-01-10T07:04:20;101425.31;;;3.81;35.74
28428;BME280;15662;49.128;8.520;2024-01-10T07:06:51;101426.09;;;3.77;35.90
28428;BME280;15662;49.128;8.520;2024-01-10T07:09:18;101419.91;;;3.74;35.95
28428;BME280;15662;49.128;8.520;2024-01-10T07:11:50;101429.56;;;3.75;36.08
28428;BME280;15662;49.128;8.520;2024-01-10T07:14:17;101434.78;;;3.73;36.25
28428;BME280;15662;49.128;8.520;2024-01-10T07:16:44;101436.50;;;3.73;35.96
28428;BME280;15662;49.128;8.520;2024-01-10T07:19:14;101442.69;;;3.75;35.89
28428;BME280;15662;49.128;8.520;2024-01-10T07:21:42;101434.75;;;3.72;35.75
28428;BME280;15662;49.128;8.520;2024-01-10T07:24:09;101446.13;;;3.74;35.68
28428;BME280;15662;49.128;8.520;2024-01-10T07:26:37;101457.50;;;3.74;35.84
28428;BME280;15662;49.128;8.520;2024-01-10T07:29:04;101447.84;;;3.70;35.96
28428;BME280;15662;49.128;8.520;2024-01-10T07:31:35;101457.41;;;3.68;35.87
28428;BME280;15662;49.128;8.520;2024-01-10T07:34:02;101454.69;;;3.63;36.22
28428;BME280;15662;49.128;8.520;2024-01-10T07:36:33;101457.34;;;3.65;36.20
28428;BME280;15662;49.128;8.520;2024-01-10T07:39:01;101462.59;;;3.65;36.15
28428;BME280;15662;49.128;8.520;2024-01-10T07:41:30;101473.09;;;3.65;36.03
28428;BME280;15662;49.128;8.520;2024-01-10T07:43:57;101466.97;;;3.66;36.46
28428;BME280;15662;49.128;8.520;2024-01-10T07:46:25;101466.97;;;3.65;36.24
28428;BME280;15662;49.128;8.520;2024-01-10T07:48:54;101470.50;;;3.67;36.52
28428;BME280;15662;49.128;8.520;2024-01-10T07:51:21;101477.59;;;3.72;36.94
28428;BME280;15662;49.128;8.520;2024-01-10T07:53:49;101487.22;;;3.73;36.67
28428;BME280;15662;49.128;8.520;2024-01-10T07:56:16;101473.25;;;3.74;36.88
28428;BME280;15662;49.128;8.520;2024-01-10T07:58:43;101480.28;;;3.75;36.95
28428;BME280;15662;49.128;8.520;2024-01-10T08:01:10;101476.81;;;3.76;36.63
28428;BME280;15662;49.128;8.520;2024-01-10T08:03:38;101469.84;;;3.78;36.62
28428;BME280;15662;49.128;8.520;2024-01-10T08:06:06;101456.72;;;3.78;37.15
28428;BME280;15662;49.128;8.520;2024-01-10T08:08:46;101471.66;;;3.82;37.23
28428;BME280;15662;49.128;8.520;2024-01-10T08:11:13;101473.50;;;3.86;37.09
28428;BME280;15662;49.128;8.520;2024-01-10T08:13:41;101469.13;;;3.85;37.00
28428;BME280;15662;49.128;8.520;2024-01-10T08:16:08;101477.00;;;3.87;36.76
28428;BME280;15662;49.128;8.520;2024-01-10T08:18:35;101484.81;;;3.84;37.04
28428;BME280;15662;49.128;8.520;2024-01-10T08:21:03;101486.44;;;3.79;37.21
28428;BME280;15662;49.128;8.520;2024-01-10T08:23:31;101494.38;;;3.80;37.00
28428;BME280;15662;49.128;8.520;2024-01-10T08:25:58;101486.53;;;3.83;36.61
28428;BME280;15662;49.128;8.520;2024-01-10T08:28:25;101480.41;;;3.81;36.96
28428;BME280;15662;49.128;8.520;2024-01-10T08:30:53;101479.41;;;3.76;37.03
28428;BME280;15662;49.128;8.520;2024-01-10T08:33:30;101490.03;;;3.82;36.57
28428;BME280;15662;49.128;8.520;2024-01-10T08:35:57;101490.91;;;3.83;36.69
28428;BME280;15662;49.128;8.520;2024-01-10T08:38:25;101493.59;;;3.86;36.80
28428;BME280;15662;49.128;8.520;2024-01-10T08:40:53;101493.59;;;3.84;36.83
28428;BME280;15662;49.128;8.520;2024-01-10T08:43:20;101492.66;;;3.84;37.16
28428;BME280;15662;49.128;8.520;2024-01-10T08:45:48;101479.53;;;3.82;36.98
28428;BME280;15662;49.128;8.520;2024-01-10T08:48:15;101483.91;;;3.83;37.14
28428;BME280;15662;49.128;8.520;2024-01-10T08:50:43;101485.81;;;3.91;37.19
28428;BME280;15662;49.128;8.520;2024-01-10T08:53:11;101492.03;;;3.96;36.69
28428;BME280;15662;49.128;8.520;2024-01-10T08:55:38;101483.28;;;3.95;36.83
28428;BME280;15662;49.128;8.520;2024-01-10T08:58:06;101487.81;;;4.04;36.95
28428;BME280;15662;49.128;8.520;2024-01-10T09:00:34;101477.38;;;4.07;37.37
28428;BME280;15662;49.128;8.520;2024-01-10T09:03:02;101498.56;;;4.18;37.13
28428;BME280;15662;49.128;8.520;2024-01-10T09:05:29;101484.53;;;4.16;36.87
28428;BME280;15662;49.128;8.520;2024-01-10T09:07:56;101483.84;;;4.26;36.81
28428;BME280;15662;49.128;8.520;2024-01-10T09:10:24;101489.09;;;4.24;37.14
28428;BME280;15662;49.128;8.520;2024-01-10T09:12:58;101498.00;;;4.34;37.14
28428;BME280;15662;49.128;8.520;2024-01-10T09:15:25;101495.41;;;4.37;37.11
28428;BME280;15662;49.128;8.520;2024-01-10T09:17:53;101478.00;;;4.42;37.21
28428;BME280;15662;49.128;8.520;2024-01-10T09:20:20;101483.31;;;4.45;37.10
28428;BME280;15662;49.128;8.520;2024-01-10T09:22:47;101488.66;;;4.51;36.65
28428;BME280;15662;49.128;8.520;2024-01-10T09:25:16;101500.03;;;4.52;36.95
28428;BME280;15662;49.128;8.520;2024-01-10T09:27:43;101488.66;;;4.50;37.42
28428;BME280;15662;49.128;8.520;2024-01-10T09:30:12;101501.97;;;4.62;37.29
28428;BME280;15662;49.128;8.520;2024-01-10T09:32:40;101500.28;;;4.65;37.13
28428;BME280;15662;49.128;8.520;2024-01-10T09:35:08;101503.00;;;4.72;36.72
28428;BME280;15662;49.128;8.520;2024-01-10T09:37:35;101503.06;;;4.76;37.16
28428;BME280;15662;49.128;8.520;2024-01-10T09:40:03;101502.19;;;4.76;36.84
28428;BME280;15662;49.128;8.520;2024-01-10T09:42:31;101501.41;;;4.81;36.85
28428;BME280;15662;49.128;8.520;2024-01-10T09:45:01;101494.31;;;4.76;36.97
28428;BME280;15662;49.128;8.520;2024-01-10T09:47:32;101497.97;;;4.85;36.82
28428;BME280;15662;49.128;8.520;2024-01-10T09:49:59;101511.19;;;4.91;36.75
28428;BME280;15662;49.128;8.520;2024-01-10T09:52:36;101511.25;;;4.95;36.75
28428;BME280;15662;49.128;8.520;2024-01-10T09:55:07;101506.94;;;4.98;36.82
28428;BME280;15662;49.128;8.520;2024-01-10T09:57:35;101513.97;;;4.99;36.76
28428;BME280;15662;49.128;8.520;2024-01-10T10:00:04;101504.31;;;4.98;36.98
28428;BME280;15662;49.128;8.520;2024-01-10T10:02:33;101510.47;;;5.00;36.98
28428;BME280;15662;49.128;8.520;2024-01-10T10:05:16;101513.97;;;5.01;36.80
28428;BME280;15662;49.128;8.520;2024-01-10T10:07:48;101516.63;;;5.02;36.92
28428;BME280;15662;49.128;8.520;2024-01-10T10:10:17;101512.28;;;5.06;36.92
28428;BME280;15662;49.128;8.520;2024-01-10T10:15:16;101506.25;;;5.11;36.75
28428;BME280;15662;49.128;8.520;2024-01-10T10:17:48;101507.13;;;5.12;36.79
28428;BME280;15662;49.128;8.520;2024-01-10T10:20:27;101502.78;;;5.14;36.58
28428;BME280;15662;49.128;8.520;2024-01-10T10:25:33;101494.91;;;5.14;36.69
28428;BME280;15662;49.128;8.520;2024-01-10T10:28:03;101494.03;;;5.15;36.48
28428;BME280;15662;49.128;8.520;2024-01-10T10:30:32;101496.72;;;5.20;36.63
28428;BME280;15662;49.128;8.520;2024-01-10T10:33:03;101502.03;;;5.23;36.79
28428;BME280;15662;49.128;8.520;2024-01-10T10:35:32;101493.28;;;5.24;36.55
28428;BME280;15662;49.128;8.520;2024-01-10T10:38:08;101509.13;;;5.28;36.68
28428;BME280;15662;49.128;8.520;2024-01-10T10:40:38;101505.44;;;5.15;36.94
28428;BME280;15662;49.128;8.520;2024-01-10T10:43:12;101497.66;;;5.23;37.08
28428;BME280;15662;49.128;8.520;2024-01-10T10:45:48;101496.00;;;5.31;36.92
28428;BME280;15662;49.128;8.520;2024-01-10T10:48:20;101489.94;;;5.35;36.79
28428;BME280;15662;49.128;8.520;2024-01-10T10:50:54;101495.25;;;5.37;36.60
28428;BME280;15662;49.128;8.520;2024-01-10T10:53:27;101496.94;;;5.33;36.50
28428;BME280;15662;49.128;8.520;2024-01-10T10:55:57;101491.53;;;5.24;36.49
28428;BME280;15662;49.128;8.520;2024-01-10T10:58:26;101498.63;;;5.31;36.86
28428;BME280;15662;49.128;8.520;2024-01-10T11:00:55;101473.22;;;5.29;37.07
28428;BME280;15662;49.128;8.520;2024-01-10T11:03:25;101471.53;;;5.35;36.71
28428;BME280;15662;49.128;8.520;2024-01-10T11:05:54;101496.19;;;5.43;36.84
28428;BME280;15662;49.128;8.520;2024-01-10T11:08:22;101504.16;;;5.51;36.50
28428;BME280;15662;49.128;8.520;2024-01-10T11:10:52;101495.44;;;5.55;36.44
28428;BME280;15662;49.128;8.520;2024-01-10T11:13:28;101492.88;;;5.58;36.69
28428;BME280;15662;49.128;8.520;2024-01-10T11:24:56;101488.69;;;5.74;36.57
28428;BME280;15662;49.128;8.520;2024-01-10T11:27:28;101492.94;;;5.64;36.88
28428;BME280;15662;49.128;8.520;2024-01-10T11:29:55;101495.69;;;5.72;36.72
28428;BME280;15662;49.128;8.520;2024-01-10T11:32:24;101494.00;;;5.77;36.89
28428;BME280;15662;49.128;8.520;2024-01-10T11:37:22;101480.03;;;5.83;36.65
28428;BME280;15662;49.128;8.520;2024-01-10T11:39:51;101490.75;;;5.98;36.62
28428;BME280;15662;49.128;8.520;2024-01-10T11:42:44;101493.44;;;6.03;36.59
28428;BME280;15662;49.128;8.520;2024-01-10T11:47:58;101489.97;;;6.10;36.63
28428;BME280;15662;49.128;8.520;2024-01-10T11:50:26;101495.34;;;6.17;36.53
28428;BME280;15662;49.128;8.520;2024-01-10T11:52:54;101491.00;;;6.21;36.43
28428;BME280;15662;49.128;8.520;2024-01-10T11:55:47;101483.97;;;6.25;36.12
28428;BME280;15662;49.128;8.520;2024-01-10T11:58:17;101488.38;;;6.24;36.52
28428;BME280;15662;49.128;8.520;2024-01-10T12:00:44;101478.72;;;6.22;36.33
28428;BME280;15662;49.128;8.520;2024-01-10T12:03:13;101479.59;;;6.24;36.33
28428;BME280;15662;49.128;8.520;2024-01-10T12:05:42;101476.09;;;6.25;36.31
28428;BME280;15662;49.128;8.520;2024-01-10T12:08:10;101469.03;;;6.20;36.12
28428;BME280;15662;49.128;8.520;2024-01-10T12:10:45;101471.69;;;6.24;36.32
28428;BME280;15662;49.128;8.520;2024-01-10T12:13:13;101460.25;;;6.20;36.11
28428;BME280;15662;49.128;8.520;2024-01-10T12:15:41;101469.03;;;6.20;35.96
28428;BME280;15662;49.128;8.520;2024-01-10T12:18:08;101471.69;;;6.24;36.40
28428;BME280;15662;49.128;8.520;2024-01-10T12:20:36;101476.97;;;6.25;36.13
28428;BME280;15662;49.128;8.520;2024-01-10T12:23:03;101473.50;;;6.26;36.14
28428;BME280;15662;49.128;8.520;2024-01-10T12:25:30;101469.09;;;6.27;36.15
28428;BME280;15662;49.128;8.520;2024-01-10T12:28:02;101460.28;;;6.25;35.91
28428;BME280;15662;49.128;8.520;2024-01-10T12:30:30;101462.09;;;6.27;36.07
28428;BME280;15662;49.128;8.520;2024-01-10T12:33:00;101452.44;;;6.29;36.12
28428;BME280;15662;49.128;8.520;2024-01-10T12:35:28;101467.34;;;6.26;36.17
28428;BME280;15662;49.128;8.520;2024-01-10T12:37:56;101462.97;;;6.29;36.34
28428;BME280;15662;49.128;8.520;2024-01-10T12:40:23;101463.84;;;6.30;36.30
28428;BME280;15662;49.128;8.520;2024-01-10T12:43:02;101469.16;;;6.33;36.27
28428;BME280;15662;49.128;8.520;2024-01-10T12:45:30;101458.56;;;6.30;36.13
28428;BME280;15662;49.128;8.520;2024-01-10T12:47:57;101463.00;;;6.32;36.21
28428;BME280;15662;49.128;8.520;2024-01-10T12:50:25;101456.88;;;6.35;36.15
28428;BME280;15662;49.128;8.520;2024-01-10T12:52:52;101461.31;;;6.37;36.06
28428;BME280;15662;49.128;8.520;2024-01-10T12:55:19;101454.28;;;6.38;36.14
28428;BME280;15662;49.128;8.520;2024-01-10T12:57:47;101456.91;;;6.39;35.95
28428;BME280;15662;49.128;8.520;2024-01-10T13:00:14;101449.84;;;6.35;35.75
28428;BME280;15662;49.128;8.520;2024-01-10T13:02:42;101459.53;;;6.39;35.79
28428;BME280;15662;49.128;8.520;2024-01-10T13:05:09;101446.34;;;6.35;35.94
28428;BME280;15662;49.128;8.520;2024-01-10T13:07:36;101448.19;;;6.42;36.14
28428;BME280;15662;49.128;8.520;2024-01-10T13:10:04;101452.56;;;6.43;36.20
28428;BME280;15662;49.128;8.520;2024-01-10T13:12:31;101449.06;;;6.42;35.87
28428;BME280;15662;49.128;8.520;2024-01-10T13:14:59;101452.56;;;6.41;35.86
28428;BME280;15662;49.128;8.520;2024-01-10T13:17:29;101454.31;;;6.44;36.10
28428;BME280;15662;49.128;8.520;2024-01-10T13:19:56;101444.66;;;6.44;36.15
28428;BME280;15662;49.128;8.520;2024-01-10T13:22:25;101445.59;;;6.48;36.00
28428;BME280;15662;49.128;8.520;2024-01-10T13:24:52;101452.59;;;6.49;36.06